createdAt,value
2023-03-21T00:00:40.249Z,3.20
2023-03-21T00:03:07.601Z,1.93
2023-03-21T00:05:34.326Z,3.67
2023-03-21T00:08:02.675Z,2.30
2023-03-21T00:10:39.802Z,3.40
2023-03-21T00:13:13.192Z,2.23
2023-03-21T00:16:03.444Z,2.47
2023-03-21T00:18:32.128Z,3.10
2023-03-21T00:21:29.363Z,3.80
2023-03-21T00:23:47.836Z,2.10
2023-03-21T00:26:15.412Z,3.23
2023-03-21T00:28:43.003Z,2.07
2023-03-21T00:31:10.280Z,2.03
2023-03-21T00:33:38.877Z,1.80
2023-03-21T00:36:07.144Z,2.90
2023-03-21T00:38:35.222Z,2.73
2023-03-21T00:41:18.880Z,3.10
2023-03-21T00:43:47.882Z,2.17
2023-03-21T00:46:16.098Z,2.43
2023-03-21T00:48:42.783Z,2.90
2023-03-21T00:51:25.947Z,2.93
2023-03-21T00:53:58.377Z,2.77
2023-03-21T00:56:25.178Z,2.17
2023-03-21T00:58:51.934Z,2.63
2023-03-21T01:01:19.250Z,2.20
2023-03-21T01:03:48.196Z,3.03
2023-03-21T01:06:19.274Z,2.70
2023-03-21T01:08:52.760Z,2.53
2023-03-21T01:11:23.393Z,1.67
2023-03-21T01:13:57.568Z,1.67
2023-03-21T01:16:29.042Z,2.60
2023-03-21T01:18:56.230Z,2.67
2023-03-21T01:21:23.149Z,2.37
2023-03-21T01:23:49.897Z,2.23
2023-03-21T01:26:16.727Z,2.63
2023-03-21T01:28:47.184Z,2.20
2023-03-21T01:31:17.339Z,2.80
2023-03-21T01:33:44.622Z,2.37
2023-03-21T01:36:23.461Z,2.30
2023-03-21T01:38:51.788Z,2.57
2023-03-21T01:41:36.834Z,3.67
2023-03-21T01:44:18.872Z,2.67
2023-03-21T01:47:00.465Z,2.30
2023-03-21T01:49:38.598Z,2.00
2023-03-21T01:52:14.159Z,2.10
2023-03-21T01:54:47.528Z,2.63
2023-03-21T01:57:22.007Z,2.03
2023-03-21T01:59:51.295Z,2.17
2023-03-21T02:02:25.923Z,1.93
2023-03-21T02:04:56.176Z,2.27
2023-03-21T02:07:30.079Z,2.43
2023-03-21T02:09:58.544Z,2.60
2023-03-21T02:12:26.898Z,2.30
2023-03-21T02:14:54.656Z,1.67
2023-03-21T02:17:43.759Z,3.90
2023-03-21T02:20:55.066Z,2.63
2023-03-21T02:23:58.202Z,2.60
2023-03-21T02:26:45.148Z,2.33
2023-03-21T02:29:32.681Z,2.73
2023-03-21T02:32:38.359Z,1.67
2023-03-21T02:35:46.991Z,1.80
2023-03-21T02:38:32.842Z,1.77
2023-03-21T02:41:20.021Z,2.03
2023-03-21T02:43:57.903Z,2.90
2023-03-21T02:46:44.220Z,2.17
2023-03-21T02:49:30.026Z,1.67
2023-03-21T02:52:08.587Z,1.87
2023-03-21T02:54:48.287Z,1.83
2023-03-21T02:57:19.346Z,2.20
2023-03-21T02:59:54.541Z,1.50
2023-03-21T03:02:28.185Z,1.67
2023-03-21T03:04:55.677Z,2.13
2023-03-21T03:07:31.219Z,2.00
2023-03-21T03:10:43.835Z,3.13
2023-03-21T03:13:40.185Z,2.20
2023-03-21T03:16:16.288Z,1.70
2023-03-21T03:18:55.687Z,2.73
2023-03-21T03:21:37.970Z,2.40
2023-03-21T03:24:13.749Z,1.53
2023-03-21T03:26:50.733Z,2.13
2023-03-21T03:29:20.745Z,2.27
2023-03-21T03:32:01.027Z,2.03
2023-03-21T03:34:34.344Z,2.17
2023-03-21T03:37:05.261Z,1.97
2023-03-21T03:39:39.926Z,2.40
2023-03-21T03:42:27.130Z,2.00
2023-03-21T03:44:55.181Z,3.00
2023-03-21T03:47:55.957Z,2.07
2023-03-21T03:50:53.743Z,1.67
2023-03-21T03:53:38.668Z,1.97
2023-03-21T03:56:07.930Z,1.93
2023-03-21T03:58:45.185Z,2.50
2023-03-21T04:01:12.962Z,1.57
2023-03-21T04:03:48.849Z,1.50
2023-03-21T04:06:18.099Z,2.43
2023-03-21T04:08:44.783Z,2.20
2023-03-21T04:11:15.992Z,2.67
2023-03-21T04:13:42.673Z,1.67
2023-03-21T04:16:11.808Z,2.00
2023-03-21T04:18:41.884Z,1.93
2023-03-21T04:21:12.839Z,1.33
2023-03-21T04:23:40.787Z,1.77
2023-03-21T04:26:08.013Z,2.10
2023-03-21T04:28:36.323Z,1.97
2023-03-21T04:31:13.507Z,3.00
2023-03-21T04:33:47.860Z,2.03
2023-03-21T04:36:24.984Z,2.37
2023-03-21T04:38:52.446Z,2.53
2023-03-21T04:41:19.366Z,2.40
2023-03-21T04:43:47.345Z,1.40
2023-03-21T04:46:14.208Z,1.87
2023-03-21T04:48:41.185Z,2.43
2023-03-21T04:51:07.855Z,1.70
2023-03-21T04:53:34.570Z,2.33
2023-03-21T04:56:01.287Z,2.87
2023-03-21T04:58:27.923Z,1.50
2023-03-21T05:00:54.727Z,2.23
2023-03-21T05:03:21.860Z,1.93
2023-03-21T05:05:49.140Z,1.73
2023-03-21T05:08:16.715Z,2.30
2023-03-21T05:10:43.501Z,1.83
2023-03-21T05:13:10.224Z,1.83
2023-03-21T05:15:37.132Z,1.63
2023-03-21T05:18:11.323Z,2.43
2023-03-21T05:20:42.815Z,1.47
2023-03-21T05:23:12.802Z,1.33
2023-03-21T05:25:40.425Z,1.77
2023-03-21T05:28:07.973Z,1.97
2023-03-21T05:30:34.817Z,2.10
2023-03-21T05:33:01.614Z,1.90
2023-03-21T05:35:28.301Z,2.93
2023-03-21T05:37:55.090Z,1.30
2023-03-21T05:40:22.122Z,2.17
2023-03-21T05:42:48.897Z,1.77
2023-03-21T05:45:16.130Z,1.80
2023-03-21T05:47:43.062Z,1.73
2023-03-21T05:50:11.355Z,2.43
2023-03-21T05:52:38.041Z,1.33
2023-03-21T05:55:05.428Z,1.93
2023-03-21T05:57:35.061Z,1.67
2023-03-21T06:00:02.092Z,2.10
2023-03-21T06:02:28.834Z,1.87
2023-03-21T06:04:56.574Z,1.73
2023-03-21T06:07:23.322Z,1.93
2023-03-21T06:09:50.356Z,1.73
2023-03-21T06:12:17.014Z,1.40
2023-03-21T06:14:43.607Z,1.77
2023-03-21T06:17:10.357Z,2.17
2023-03-21T06:19:36.956Z,2.13
2023-03-21T06:22:03.600Z,2.70
2023-03-21T06:24:30.216Z,1.83
2023-03-21T06:26:57.172Z,1.53
2023-03-21T06:29:23.917Z,1.97
2023-03-21T06:31:50.903Z,1.70
2023-03-21T06:34:17.783Z,1.80
2023-03-21T06:36:44.700Z,2.07
2023-03-21T06:39:11.465Z,2.00
2023-03-21T06:41:38.242Z,2.07
2023-03-21T06:44:11.204Z,3.10
2023-03-21T06:46:37.929Z,3.97
2023-03-21T06:49:04.742Z,3.50
2023-03-21T06:51:31.503Z,5.27
2023-03-21T06:53:58.132Z,4.80
2023-03-21T06:56:24.849Z,4.03
2023-03-21T06:58:51.618Z,5.80
2023-03-21T07:01:18.307Z,5.27
2023-03-21T07:03:44.958Z,4.93
2023-03-21T07:06:12.084Z,4.33
2023-03-21T07:08:40.344Z,4.87
2023-03-21T07:11:07.935Z,5.37
2023-03-21T07:13:34.663Z,4.60
2023-03-21T07:16:01.374Z,4.90
2023-03-21T07:18:28.166Z,4.87
2023-03-21T07:20:54.923Z,5.00
2023-03-21T07:23:24.995Z,11.53
2023-03-21T07:25:52.888Z,5.80
2023-03-21T07:28:20.447Z,6.90
2023-03-21T07:30:54.018Z,6.27
2023-03-21T07:33:20.692Z,6.20
2023-03-21T07:35:47.416Z,7.90
2023-03-21T07:38:16.769Z,9.37
2023-03-21T07:40:44.190Z,5.97
2023-03-21T07:43:10.906Z,4.97
2023-03-21T07:45:38.001Z,5.53
2023-03-21T07:48:04.983Z,5.03
2023-03-21T07:50:31.798Z,7.53
2023-03-21T07:52:58.474Z,7.23
2023-03-21T07:55:25.251Z,6.37
2023-03-21T07:57:52.224Z,8.17
2023-03-21T08:00:23.328Z,5.43
2023-03-21T08:02:57.133Z,7.87
2023-03-21T08:05:30.744Z,6.97
2023-03-21T08:07:57.647Z,7.43
2023-03-21T08:10:24.711Z,6.37
2023-03-21T08:12:51.587Z,7.53
2023-03-21T08:15:18.465Z,6.00
2023-03-21T08:17:48.117Z,5.67
2023-03-21T08:20:17.580Z,6.80
2023-03-21T08:22:45.002Z,6.40
2023-03-21T08:25:17.777Z,6.37
2023-03-21T08:27:46.656Z,5.77
2023-03-21T08:30:16.732Z,5.37
2023-03-21T08:32:43.576Z,4.17
2023-03-21T08:35:12.811Z,4.53
2023-03-21T08:37:42.568Z,5.60
2023-03-21T08:40:15.725Z,3.93
2023-03-21T08:42:43.932Z,4.37
2023-03-21T08:45:11.640Z,3.30
2023-03-21T08:47:38.549Z,4.43
2023-03-21T08:50:07.222Z,3.97
2023-03-21T08:52:34.274Z,3.37
2023-03-21T08:55:02.249Z,3.67
2023-03-21T08:57:29.703Z,6.03
2023-03-21T08:59:56.953Z,4.27
2023-03-21T09:02:23.655Z,3.60
2023-03-21T09:04:53.175Z,5.63
2023-03-21T09:07:20.119Z,4.63
2023-03-21T09:09:50.899Z,3.50
2023-03-21T09:12:24.870Z,3.73
2023-03-21T09:14:53.226Z,3.63
2023-03-21T09:17:21.284Z,4.60
2023-03-21T09:19:49.227Z,3.70
2023-03-21T09:22:17.750Z,4.47
2023-03-21T09:24:49.195Z,3.73
2023-03-21T09:27:22.996Z,3.10
2023-03-21T09:29:50.525Z,3.23
2023-03-21T09:32:18.291Z,2.90
2023-03-21T09:34:45.880Z,3.03
2023-03-21T09:37:15.733Z,4.30
2023-03-21T09:39:45.476Z,3.30
2023-03-21T09:42:45.940Z,3.20
2023-03-21T09:45:51.364Z,4.30
2023-03-21T09:49:00.190Z,3.33
2023-03-21T09:51:32.982Z,3.30
2023-03-21T09:54:07.458Z,3.33
2023-03-21T09:56:36.542Z,4.30
2023-03-21T09:59:07.152Z,3.50
2023-03-21T10:01:41.778Z,2.80
2023-03-21T10:04:12.472Z,2.80
2023-03-21T10:06:42.712Z,3.93
2023-03-21T10:09:22.857Z,3.17
2023-03-21T10:11:58.327Z,2.93
2023-03-21T10:14:33.416Z,3.37
2023-03-21T10:17:10.554Z,3.17
2023-03-21T10:19:37.197Z,2.97
2023-03-21T10:22:04.435Z,3.90
2023-03-21T10:24:34.419Z,2.53
2023-03-21T10:27:02.526Z,3.57
2023-03-21T10:29:42.258Z,2.93
2023-03-21T10:32:12.365Z,3.17
2023-03-21T10:34:50.900Z,3.53
2023-03-21T10:37:17.759Z,3.43
2023-03-21T10:39:49.165Z,3.17
2023-03-21T10:42:31.344Z,3.67
2023-03-21T10:44:58.504Z,2.77
2023-03-21T10:47:35.953Z,1.87
2023-03-21T10:50:08.083Z,2.93
2023-03-21T10:52:37.903Z,2.37
2023-03-21T10:55:19.503Z,2.53
2023-03-21T10:57:47.408Z,2.90
2023-03-21T11:00:21.930Z,2.70
2023-03-21T11:02:50.531Z,2.60
2023-03-21T11:05:20.871Z,3.07
2023-03-21T11:07:47.888Z,3.67
2023-03-21T11:10:29.484Z,2.20
2023-03-21T11:13:01.268Z,2.57
2023-03-21T11:15:58.375Z,2.50
2023-03-21T11:18:26.891Z,2.57
2023-03-21T11:20:57.084Z,2.27
2023-03-21T11:23:29.578Z,2.10
2023-03-21T11:25:58.636Z,2.83
2023-03-21T11:28:33.386Z,1.90
2023-03-21T11:31:02.809Z,2.07
2023-03-21T11:33:40.213Z,2.10
2023-03-21T11:36:24.320Z,2.90
2023-03-21T11:38:53.707Z,2.63
2023-03-21T11:41:33.966Z,3.70
2023-03-21T11:44:02.661Z,2.83
2023-03-21T11:46:31.613Z,3.40
2023-03-21T11:48:59.747Z,2.27
2023-03-21T11:51:41.320Z,3.13
2023-03-21T11:54:26.995Z,2.90
2023-03-21T11:56:59.159Z,3.67
2023-03-21T11:59:52.438Z,2.23
2023-03-21T12:02:43.154Z,1.77
2023-03-21T12:05:21.675Z,3.43
2023-03-21T12:08:01.869Z,2.97
2023-03-21T12:10:39.871Z,2.50
2023-03-21T12:13:47.443Z,2.00
2023-03-21T12:16:28.284Z,2.20
2023-03-21T12:19:01.939Z,3.17
2023-03-21T12:21:43.252Z,4.60
2023-03-21T12:24:17.344Z,2.73
2023-03-21T12:27:02.747Z,2.67
2023-03-21T12:29:58.093Z,2.23
2023-03-21T12:32:49.961Z,3.97
2023-03-21T12:35:41.540Z,2.33
2023-03-21T12:38:27.049Z,2.13
2023-03-21T12:41:17.414Z,2.07
2023-03-21T12:43:55.166Z,2.10
2023-03-21T12:46:56.729Z,2.63
2023-03-21T12:49:38.298Z,2.97
2023-03-21T12:52:11.997Z,5.00
2023-03-21T12:54:44.525Z,6.87
2023-03-21T12:57:17.820Z,3.43
2023-03-21T13:00:10.580Z,3.23
2023-03-21T13:02:58.758Z,3.73
2023-03-21T13:05:38.771Z,3.10
2023-03-21T13:08:17.256Z,3.30
2023-03-21T13:10:46.004Z,2.70
2023-03-21T13:13:19.908Z,3.90
2023-03-21T13:16:08.911Z,4.40
2023-03-21T13:18:39.841Z,4.07
2023-03-21T13:21:25.865Z,3.23
2023-03-21T13:24:17.255Z,4.43
2023-03-21T13:26:50.010Z,2.43
2023-03-21T13:29:19.733Z,3.33
2023-03-21T13:31:52.468Z,4.63
2023-03-21T13:34:27.049Z,3.63
2023-03-21T13:36:56.549Z,5.63
2023-03-21T13:39:28.092Z,3.23
2023-03-21T13:41:55.581Z,3.00
2023-03-21T13:44:32.859Z,2.77
2023-03-21T13:47:04.096Z,4.20
2023-03-21T13:49:36.853Z,3.63
2023-03-21T13:52:27.800Z,2.20
2023-03-21T13:54:56.699Z,3.83
2023-03-21T13:57:30.386Z,3.23
2023-03-21T14:00:18.987Z,2.23
2023-03-21T14:03:07.862Z,2.47
2023-03-21T14:05:35.319Z,6.67
2023-03-21T14:08:15.287Z,3.43
2023-03-21T14:10:46.814Z,3.10
2023-03-21T14:13:17.876Z,4.20
2023-03-21T14:15:55.999Z,2.67
2023-03-21T14:18:51.823Z,5.10
2023-03-21T14:21:26.420Z,1.70
2023-03-21T14:24:05.087Z,4.77
2023-03-21T14:26:37.783Z,3.10
2023-03-21T14:29:12.407Z,2.63
2023-03-21T14:31:47.905Z,2.93
2023-03-21T14:34:16.763Z,2.97
2023-03-21T14:36:51.721Z,3.33
2023-03-21T14:39:30.881Z,3.77
2023-03-21T14:42:04.962Z,4.23
2023-03-21T14:44:52.927Z,4.87
2023-03-21T14:47:24.348Z,3.33
2023-03-21T14:49:51.762Z,2.57
2023-03-21T14:52:32.409Z,2.83
2023-03-21T14:55:00.956Z,3.60
2023-03-21T14:57:31.155Z,3.83
2023-03-21T15:00:01.877Z,2.50
2023-03-21T15:02:34.367Z,2.33
2023-03-21T15:05:34.597Z,2.90
2023-03-21T15:08:15.292Z,2.93
2023-03-21T15:10:42.766Z,2.53
2023-03-21T15:13:14.524Z,6.17
2023-03-21T15:15:42.114Z,3.20
2023-03-21T15:18:14.196Z,1.97
2023-03-21T15:20:41.226Z,2.83
2023-03-21T15:23:16.028Z,5.07
2023-03-21T15:25:43.114Z,3.50
2023-03-21T15:28:13.938Z,3.87
2023-03-21T15:30:49.175Z,4.20
2023-03-21T15:33:17.188Z,3.00
2023-03-21T15:35:49.552Z,4.03
2023-03-21T15:38:36.364Z,4.90
2023-03-21T15:41:26.247Z,2.93
2023-03-21T15:44:02.085Z,3.50
2023-03-21T15:46:48.060Z,2.23
2023-03-21T15:49:14.694Z,4.13
2023-03-21T15:52:03.157Z,3.17
2023-03-21T15:54:36.977Z,2.30
2023-03-21T15:57:15.909Z,2.40
2023-03-21T15:59:43.545Z,2.97
2023-03-21T16:02:25.229Z,3.03
2023-03-21T16:05:03.414Z,2.93
2023-03-21T16:07:34.357Z,2.60
2023-03-21T16:10:04.480Z,4.30
2023-03-21T16:12:31.183Z,2.23
2023-03-21T16:14:57.847Z,2.60
2023-03-21T16:17:39.572Z,3.27
2023-03-21T16:20:28.374Z,3.97
2023-03-21T16:22:55.094Z,1.93
2023-03-21T16:25:21.945Z,4.03
2023-03-21T16:27:49.301Z,2.20
2023-03-21T16:30:19.281Z,2.63
2023-03-21T16:32:46.532Z,2.40
2023-03-21T16:35:13.363Z,3.27
2023-03-21T16:37:40.384Z,2.93
2023-03-21T16:40:23.872Z,3.77
2023-03-21T16:42:50.570Z,2.13
2023-03-21T16:45:17.335Z,2.50
2023-03-21T16:47:44.650Z,4.10
2023-03-21T16:50:22.320Z,2.93
2023-03-21T16:52:48.976Z,3.50
2023-03-21T16:55:15.945Z,1.77
2023-03-21T16:57:43.096Z,2.77
2023-03-21T17:00:13.800Z,2.70
2023-03-21T17:02:40.429Z,2.33
2023-03-21T17:05:07.201Z,2.53
2023-03-21T17:07:33.760Z,2.80
2023-03-21T17:10:00.616Z,3.27
2023-03-21T17:12:27.151Z,2.53
2023-03-21T17:14:54.026Z,2.67
2023-03-21T17:17:21.550Z,2.00
2023-03-21T17:19:48.301Z,4.13
2023-03-21T17:22:14.858Z,2.23
2023-03-21T17:24:41.532Z,2.90
2023-03-21T17:27:11.449Z,2.30
2023-03-21T17:29:39.122Z,3.83
2023-03-21T17:32:05.702Z,2.70
2023-03-21T17:34:32.235Z,3.80
2023-03-21T17:36:58.943Z,2.87
2023-03-21T17:39:28.432Z,1.77
2023-03-21T17:41:56.690Z,3.67
2023-03-21T17:44:23.324Z,3.87
2023-03-21T17:46:51.685Z,4.23
2023-03-21T17:49:19.842Z,3.83
2023-03-21T17:51:46.941Z,3.80
2023-03-21T17:54:13.940Z,3.73
2023-03-21T17:56:41.951Z,4.70
2023-03-21T17:59:13.126Z,2.60
2023-03-21T18:01:39.737Z,3.97
2023-03-21T18:04:06.958Z,2.60
2023-03-21T18:06:34.506Z,2.50
2023-03-21T18:09:06.639Z,3.57
2023-03-21T18:11:33.301Z,3.53
2023-03-21T18:14:14.298Z,4.13
2023-03-21T18:16:42.815Z,3.03
2023-03-21T18:19:12.812Z,3.50
2023-03-21T18:21:44.833Z,4.43
2023-03-21T18:24:11.750Z,3.83
2023-03-21T18:26:38.399Z,4.43
2023-03-21T18:32:05.390Z,2.67
2023-03-21T18:34:33.307Z,3.03
2023-03-21T18:37:02.781Z,3.13
2023-03-21T18:39:30.519Z,2.67
2023-03-21T18:42:02.139Z,4.23
2023-03-21T18:44:29.906Z,3.93
2023-03-21T18:46:57.806Z,2.60
2023-03-21T18:50:09.798Z,5.70
2023-03-21T18:52:12.591Z,3.83
2023-03-21T18:54:39.587Z,3.43
2023-03-21T18:57:39.458Z,2.63
2023-03-21T18:59:56.549Z,4.07
2023-03-21T19:02:23.086Z,3.23
2023-03-21T19:04:49.655Z,4.90
2023-03-21T19:07:16.401Z,2.97
2023-03-21T19:10:05.178Z,7.03
2023-03-21T19:12:29.732Z,5.40
2023-03-21T19:14:56.670Z,5.63
2023-03-21T19:20:11.943Z,5.93
2023-03-21T19:22:38.654Z,5.80
2023-03-21T19:25:07.144Z,2.53
2023-03-21T19:27:34.579Z,17.17
2023-03-21T19:30:14.533Z,15.17
2023-03-21T19:32:42.519Z,15.17
2023-03-21T19:35:09.968Z,13.20
2023-03-21T19:37:36.697Z,10.00
2023-03-21T19:40:05.620Z,11.60
2023-03-21T19:42:32.531Z,9.90
2023-03-21T19:44:59.267Z,9.03
2023-03-21T19:47:26.291Z,11.43
2023-03-21T19:52:40.616Z,12.47
2023-03-21T19:55:07.999Z,8.17
2023-03-21T19:57:34.941Z,7.93
2023-03-21T20:00:02.338Z,9.03
2023-03-21T20:02:37.156Z,10.53
2023-03-21T20:05:06.604Z,7.73
2023-03-21T20:07:33.319Z,8.60
2023-03-21T20:10:00.281Z,7.07
2023-03-21T20:12:27.453Z,9.10
2023-03-21T20:15:07.068Z,10.27
2023-03-21T20:17:38.788Z,8.73
2023-03-21T20:20:09.210Z,9.10
2023-03-21T20:23:05.171Z,9.33
2023-03-21T20:25:23.020Z,7.50
2023-03-21T20:28:09.371Z,7.17
2023-03-21T20:30:36.661Z,5.53
2023-03-21T20:33:04.147Z,8.17
2023-03-21T20:36:16.392Z,6.47
2023-03-21T20:38:20.372Z,8.60
2023-03-21T20:40:47.988Z,6.37
2023-03-21T20:44:04.912Z,6.17
2023-03-21T20:46:06.829Z,7.80
2023-03-21T20:48:34.322Z,6.83
2023-03-21T20:51:32.127Z,4.63
2023-03-21T20:53:49.119Z,6.87
2023-03-21T20:56:15.962Z,5.97
2023-03-21T20:59:04.527Z,6.43
2023-03-21T21:01:29.241Z,5.20
2023-03-21T21:03:57.499Z,7.83
2023-03-21T21:06:24.329Z,6.93
2023-03-21T21:08:50.984Z,6.87
2023-03-21T21:12:02.998Z,6.23
2023-03-21T21:14:05.473Z,5.10
2023-03-21T21:16:32.210Z,6.60
2023-03-21T21:18:59.534Z,7.47
2023-03-21T21:21:27.648Z,5.87
2023-03-21T21:23:54.262Z,7.57
2023-03-21T21:26:20.878Z,7.00
2023-03-21T21:28:47.718Z,6.87
2023-03-21T21:31:18.992Z,7.23
2023-03-21T21:33:48.242Z,5.27
2023-03-21T21:36:14.831Z,4.80
2023-03-21T21:38:41.584Z,7.33
2023-03-21T21:41:14.372Z,5.57
2023-03-21T21:43:41.381Z,5.13
2023-03-21T21:46:07.963Z,5.20
2023-03-21T21:48:34.679Z,5.20
2023-03-21T21:51:02.364Z,5.93
2023-03-21T21:53:29.025Z,7.53
2023-03-21T21:55:58.312Z,4.13
2023-03-21T21:58:25.903Z,5.03
2023-03-21T22:00:52.531Z,7.83
2023-03-21T22:03:21.943Z,6.73
2023-03-21T22:05:50.372Z,4.83
2023-03-21T22:08:17.802Z,4.67
2023-03-21T22:10:47.362Z,5.43
2023-03-21T22:13:14.194Z,5.23
2023-03-21T22:15:41.076Z,5.67
2023-03-21T22:18:09.875Z,5.17
2023-03-21T22:20:36.807Z,6.07
2023-03-21T22:23:03.972Z,5.87
2023-03-21T22:25:32.988Z,4.97
2023-03-21T22:27:59.892Z,4.73
2023-03-21T22:30:27.022Z,5.20
2023-03-21T22:33:08.130Z,4.80
2023-03-21T22:35:35.861Z,7.80
2023-03-21T22:38:02.455Z,4.37
2023-03-21T22:40:29.059Z,6.30
2023-03-21T22:42:55.687Z,4.50
2023-03-21T22:45:22.345Z,7.43
2023-03-21T22:47:48.991Z,4.97
2023-03-21T22:50:15.630Z,4.30
2023-03-21T22:52:42.179Z,4.93
2023-03-21T22:55:10.009Z,4.47
2023-03-21T22:57:36.626Z,5.10
2023-03-21T23:00:13.390Z,5.83
2023-03-21T23:02:41.427Z,7.20
2023-03-21T23:05:09.150Z,4.10
2023-03-21T23:07:36.238Z,5.87
2023-03-21T23:10:05.034Z,5.40
2023-03-21T23:12:32.128Z,6.13
2023-03-21T23:14:58.683Z,4.37
2023-03-21T23:17:26.968Z,5.90
2023-03-21T23:19:53.609Z,4.63
2023-03-21T23:22:20.247Z,5.03
2023-03-21T23:24:46.986Z,4.93
2023-03-21T23:27:14.202Z,4.87
2023-03-21T23:29:40.780Z,5.90
2023-03-21T23:32:07.379Z,4.90
2023-03-21T23:34:33.967Z,4.60
2023-03-21T23:37:00.615Z,4.20
2023-03-21T23:39:28.233Z,5.73
2023-03-21T23:41:55.045Z,3.73
2023-03-21T23:44:21.660Z,5.00
2023-03-21T23:46:48.182Z,4.17
2023-03-21T23:49:15.332Z,4.53
2023-03-21T23:51:42.055Z,4.57
2023-03-21T23:54:09.067Z,5.07
2023-03-21T23:56:36.354Z,4.30
2023-03-21T23:59:03.507Z,4.53
